createdAt,value
2022-12-12T00:00:18.020Z,95.78
2022-12-12T00:02:49.921Z,95.24
2022-12-12T00:05:21.365Z,95.17
2022-12-12T00:07:52.655Z,95.58
2022-12-12T00:10:23.931Z,95.38
2022-12-12T00:12:55.257Z,94.98
2022-12-12T00:15:27.761Z,94.72
2022-12-12T00:17:59.070Z,94.98
2022-12-12T00:20:30.369Z,95.67
2022-12-12T00:23:01.695Z,94.84
2022-12-12T00:25:33.043Z,95.63
2022-12-12T00:28:04.539Z,94.64
2022-12-12T00:30:35.819Z,95.28
2022-12-12T00:33:07.085Z,95.39
2022-12-12T00:35:38.480Z,95.32
2022-12-12T00:38:09.973Z,95.73
2022-12-12T00:40:41.248Z,94.65
2022-12-12T00:43:12.662Z,95.59
2022-12-12T00:45:43.924Z,94.49
2022-12-12T00:48:15.192Z,95.59
2022-12-12T00:50:47.013Z,94.56
2022-12-12T00:53:19.057Z,95.08
2022-12-12T00:55:57.839Z,95.41
2022-12-12T00:58:30.739Z,95.12
2022-12-12T01:01:07.781Z,94.72
2022-12-12T01:03:41.069Z,95.20
2022-12-12T01:06:13.080Z,95.06
2022-12-12T01:08:44.436Z,95.04
2022-12-12T01:11:16.467Z,95.20
2022-12-12T01:13:49.447Z,94.89
2022-12-12T01:16:22.067Z,94.27
2022-12-12T01:18:53.540Z,94.88
2022-12-12T01:21:25.102Z,94.76
2022-12-12T01:23:56.429Z,94.24
2022-12-12T01:26:27.806Z,94.83
2022-12-12T01:28:59.052Z,95.37
2022-12-12T01:31:30.455Z,95.45
2022-12-12T01:34:01.752Z,95.23
2022-12-12T01:36:33.414Z,95.17
2022-12-12T01:39:05.723Z,94.97
2022-12-12T01:41:37.678Z,95.22
2022-12-12T01:44:52.594Z,94.21
2022-12-12T01:47:25.355Z,95.10
2022-12-12T01:50:04.465Z,95.41
2022-12-12T01:52:44.297Z,95.56
2022-12-12T01:55:20.496Z,94.50
2022-12-12T01:57:54.574Z,95.29
2022-12-12T02:00:25.933Z,94.49
2022-12-12T02:02:57.669Z,94.53
2022-12-12T02:05:33.775Z,95.04
2022-12-12T02:08:06.356Z,95.13
2022-12-12T02:10:37.662Z,95.04
2022-12-12T02:13:19.421Z,94.70
2022-12-12T02:16:22.459Z,93.97
2022-12-12T02:19:05.048Z,94.27
2022-12-12T02:21:46.298Z,93.99
2022-12-12T02:24:42.082Z,94.40
2022-12-12T02:27:48.216Z,93.88
2022-12-12T02:30:41.073Z,93.07
2022-12-12T02:33:49.664Z,93.66
2022-12-12T02:36:28.766Z,93.60
2022-12-12T02:39:27.379Z,93.14
2022-12-12T02:42:10.628Z,93.33
2022-12-12T02:44:56.341Z,93.23
2022-12-12T02:51:15.621Z,92.74
2022-12-12T02:53:46.961Z,92.98
2022-12-12T02:56:43.183Z,93.04
2022-12-12T02:59:20.841Z,92.65
2022-12-12T03:02:19.256Z,92.92
2022-12-12T03:05:21.354Z,92.51
2022-12-12T03:08:11.349Z,92.81
2022-12-12T03:11:41.223Z,92.19
2022-12-12T03:14:29.432Z,92.08
2022-12-12T03:17:17.529Z,92.39
2022-12-12T03:20:02.328Z,92.08
2022-12-12T03:22:43.502Z,92.30
2022-12-12T03:25:27.850Z,92.36
2022-12-12T03:28:37.980Z,92.20
2022-12-12T03:31:12.195Z,92.18
2022-12-12T03:33:46.880Z,92.50
2022-12-12T03:36:25.864Z,91.97
2022-12-12T03:39:03.245Z,91.92
2022-12-12T03:41:43.433Z,91.94
2022-12-12T03:44:20.305Z,91.53
2022-12-12T03:46:56.407Z,91.49
2022-12-12T03:49:45.265Z,91.63
2022-12-12T03:52:33.409Z,91.85
2022-12-12T03:55:12.485Z,91.76
2022-12-12T03:58:00.539Z,91.58
2022-12-12T04:00:33.641Z,91.46
2022-12-12T04:03:18.316Z,91.40
2022-12-12T04:06:25.994Z,91.85
2022-12-12T04:09:22.438Z,91.70
2022-12-12T04:12:37.770Z,91.19
2022-12-12T04:15:25.211Z,91.48
2022-12-12T04:18:17.162Z,91.37
2022-12-12T04:21:37.417Z,91.30
2022-12-12T04:24:22.799Z,90.81
2022-12-12T04:27:04.769Z,91.26
2022-12-12T04:29:38.723Z,91.57
2022-12-12T04:32:32.641Z,91.44
2022-12-12T04:35:14.015Z,91.63
2022-12-12T04:37:55.189Z,91.34
2022-12-12T04:40:33.759Z,91.45
2022-12-12T04:43:10.183Z,91.88
2022-12-12T04:45:43.844Z,91.81
2022-12-12T04:48:20.586Z,91.62
2022-12-12T04:50:53.255Z,91.80
2022-12-12T04:53:32.373Z,92.26
2022-12-12T04:56:09.339Z,92.13
2022-12-12T04:58:40.772Z,92.12
2022-12-12T05:01:23.241Z,92.49
2022-12-12T05:03:58.353Z,92.30
2022-12-12T05:06:44.953Z,92.34
2022-12-12T05:09:17.847Z,92.56
2022-12-12T05:11:49.692Z,92.62
2022-12-12T05:14:21.370Z,92.51
2022-12-12T05:16:55.682Z,92.85
2022-12-12T05:19:26.952Z,93.25
2022-12-12T05:21:58.222Z,92.91
2022-12-12T05:24:31.251Z,93.07
2022-12-12T05:27:02.636Z,93.11
2022-12-12T05:29:34.065Z,92.80
2022-12-12T05:32:05.348Z,92.57
2022-12-12T05:34:36.611Z,93.11
2022-12-12T05:37:07.887Z,92.80
2022-12-12T05:39:39.199Z,92.97
2022-12-12T05:42:10.449Z,93.38
2022-12-12T05:44:41.796Z,93.43
2022-12-12T05:47:13.093Z,93.18
2022-12-12T05:49:45.187Z,93.13
2022-12-12T05:52:16.664Z,92.79
2022-12-12T05:54:47.945Z,92.51
2022-12-12T05:57:19.654Z,92.17
2022-12-12T05:59:50.917Z,92.28
2022-12-12T06:02:22.230Z,91.95
2022-12-12T06:04:53.624Z,92.20
2022-12-12T06:07:25.008Z,91.98
2022-12-12T06:09:56.315Z,92.20
2022-12-12T06:12:27.676Z,91.35
2022-12-12T06:14:58.979Z,91.71
2022-12-12T06:17:33.271Z,91.55
2022-12-12T06:20:05.554Z,91.12
2022-12-12T06:22:36.940Z,91.63
2022-12-12T06:25:08.939Z,91.70
2022-12-12T06:27:40.194Z,91.19
2022-12-12T06:30:11.928Z,91.14
2022-12-12T06:32:43.323Z,91.18
2022-12-12T06:35:14.996Z,91.29
2022-12-12T06:37:48.347Z,90.66
2022-12-12T06:40:19.851Z,90.23
2022-12-12T06:42:51.206Z,90.78
2022-12-12T06:45:22.618Z,90.14
2022-12-12T06:47:53.908Z,90.69
2022-12-12T06:50:25.294Z,90.56
2022-12-12T06:52:56.628Z,90.44
2022-12-12T06:55:27.955Z,90.11
2022-12-12T06:57:59.339Z,90.37
2022-12-12T07:00:30.803Z,89.85
2022-12-12T07:03:02.187Z,90.07
2022-12-12T07:05:33.626Z,89.69
2022-12-12T07:08:04.973Z,89.80
2022-12-12T07:10:36.571Z,89.66
2022-12-12T07:13:08.169Z,89.87
2022-12-12T07:15:48.289Z,90.35
2022-12-12T07:18:19.711Z,89.66
2022-12-12T07:20:51.042Z,89.97
2022-12-12T07:23:22.300Z,90.39
2022-12-12T07:25:53.559Z,89.20
2022-12-12T07:28:25.059Z,89.72
2022-12-12T07:30:56.449Z,89.86
2022-12-12T07:33:39.556Z,89.43
2022-12-12T07:36:14.545Z,89.93
2022-12-12T07:38:45.919Z,90.02
2022-12-12T07:41:18.810Z,89.66
2022-12-12T07:43:50.917Z,89.84
2022-12-12T07:46:25.170Z,89.22
2022-12-12T07:48:57.018Z,89.39
2022-12-12T07:51:29.609Z,89.89
2022-12-12T07:54:01.141Z,89.99
2022-12-12T07:56:32.653Z,89.87
2022-12-12T07:59:03.916Z,89.19
2022-12-12T08:01:35.656Z,89.93
2022-12-12T08:04:07.024Z,89.27
2022-12-12T08:06:38.600Z,89.70
2022-12-12T08:09:09.941Z,89.82
2022-12-12T08:11:46.132Z,90.13
2022-12-12T08:14:17.936Z,89.43
2022-12-12T08:16:49.241Z,89.13
2022-12-12T08:19:20.594Z,89.63
2022-12-12T08:21:51.891Z,89.59
2022-12-12T08:24:23.244Z,90.12
2022-12-12T08:26:54.559Z,89.63
2022-12-12T08:29:25.936Z,89.70
2022-12-12T08:31:57.611Z,89.66
2022-12-12T08:34:28.942Z,89.66
2022-12-12T08:37:00.304Z,90.27
2022-12-12T08:39:31.655Z,89.80
2022-12-12T08:42:03.722Z,89.80
2022-12-12T08:44:35.078Z,90.11
2022-12-12T08:47:06.722Z,89.87
2022-12-12T08:49:38.055Z,89.90
2022-12-12T08:52:10.307Z,90.13
2022-12-12T08:54:41.661Z,90.64
2022-12-12T08:57:12.960Z,90.28
2022-12-12T08:59:44.276Z,90.28
2022-12-12T09:02:15.706Z,90.55
2022-12-12T09:04:47.123Z,90.18
2022-12-12T09:07:18.444Z,90.31
2022-12-12T09:09:49.784Z,90.61
2022-12-12T09:12:21.144Z,90.50
2022-12-12T09:14:52.505Z,90.69
2022-12-12T09:17:23.836Z,90.33
2022-12-12T09:19:55.226Z,90.83
2022-12-12T09:22:26.853Z,91.04
2022-12-12T09:24:58.280Z,91.09
2022-12-12T09:27:29.706Z,90.97
2022-12-12T09:30:00.998Z,91.26
2022-12-12T09:32:32.267Z,91.30
2022-12-12T09:35:03.692Z,91.41
2022-12-12T09:37:35.090Z,91.57
2022-12-12T09:40:08.075Z,91.52
2022-12-12T09:42:47.948Z,91.97
2022-12-12T09:45:20.559Z,91.53
2022-12-12T09:47:58.120Z,91.71
2022-12-12T09:50:44.863Z,91.87
2022-12-12T09:53:20.111Z,91.97
2022-12-12T09:56:19.315Z,92.19
2022-12-12T09:59:00.826Z,92.13
2022-12-12T10:01:52.879Z,92.17
2022-12-12T10:04:39.869Z,91.88
2022-12-12T10:07:18.254Z,92.04
2022-12-12T10:10:02.907Z,92.63
2022-12-12T10:12:34.644Z,92.00
2022-12-12T10:15:13.721Z,92.19
2022-12-12T10:17:46.678Z,92.17
2022-12-12T10:20:27.479Z,92.44
2022-12-12T10:23:19.182Z,92.58
2022-12-12T10:26:02.145Z,92.93
2022-12-12T10:28:35.224Z,92.36
2022-12-12T10:31:40.690Z,92.73
2022-12-12T10:34:33.992Z,93.29
2022-12-12T10:37:39.503Z,92.71
2022-12-12T10:40:42.002Z,92.60
2022-12-12T10:43:41.020Z,92.27
2022-12-12T10:46:20.517Z,92.57
2022-12-12T10:48:52.240Z,93.28
2022-12-12T10:51:27.435Z,93.02
2022-12-12T10:53:58.688Z,92.82
2022-12-12T10:56:30.136Z,92.95
2022-12-12T10:59:01.848Z,93.62
2022-12-12T11:04:31.452Z,93.48
2022-12-12T11:07:02.708Z,92.99
2022-12-12T11:09:34.032Z,93.12
2022-12-12T11:12:16.480Z,93.17
2022-12-12T11:14:52.835Z,93.23
2022-12-12T11:17:29.396Z,93.53
2022-12-12T11:20:09.712Z,93.33
2022-12-12T11:22:40.996Z,93.58
2022-12-12T11:25:44.623Z,92.82
2022-12-12T11:28:23.115Z,93.59
2022-12-12T11:30:56.446Z,93.99
2022-12-12T11:33:35.324Z,93.16
2022-12-12T11:36:06.992Z,93.14
2022-12-12T11:38:40.786Z,93.86
2022-12-12T11:41:12.386Z,93.01
2022-12-12T11:43:49.753Z,93.10
2022-12-12T11:46:31.936Z,93.85
2022-12-12T11:49:05.032Z,93.22
2022-12-12T11:51:40.484Z,93.37
2022-12-12T11:54:12.025Z,93.48
2022-12-12T11:56:50.095Z,93.09
2022-12-12T11:59:30.387Z,93.33
2022-12-12T12:02:22.946Z,93.59
2022-12-12T12:05:27.829Z,93.87
2022-12-12T12:08:22.526Z,93.80
2022-12-12T12:11:15.235Z,93.14
2022-12-12T12:14:02.855Z,93.66
2022-12-12T12:16:47.016Z,93.85
2022-12-12T12:19:45.784Z,93.90
2022-12-12T12:22:35.606Z,93.37
2022-12-12T12:25:25.468Z,93.92
2022-12-12T12:28:04.525Z,93.22
2022-12-12T12:31:00.443Z,94.16
2022-12-12T12:33:48.436Z,93.08
2022-12-12T12:36:24.798Z,93.36
2022-12-12T12:39:04.358Z,93.84
2022-12-12T12:41:50.851Z,93.24
2022-12-12T12:44:39.323Z,93.83
2022-12-12T12:47:31.258Z,93.22
2022-12-12T12:50:16.138Z,93.58
2022-12-12T12:52:56.909Z,93.63
2022-12-12T12:55:43.847Z,93.84
2022-12-12T12:58:18.547Z,93.19
2022-12-12T13:01:02.452Z,93.79
2022-12-12T13:03:47.806Z,94.23
2022-12-12T13:06:27.695Z,93.43
2022-12-12T13:09:18.026Z,93.86
2022-12-12T13:11:53.110Z,93.91
2022-12-12T13:14:48.568Z,93.08
2022-12-12T13:17:44.696Z,93.38
2022-12-12T13:20:20.906Z,93.28
2022-12-12T13:23:15.453Z,93.96
2022-12-12T13:26:12.863Z,93.55
2022-12-12T13:28:49.153Z,93.41
2022-12-12T13:31:42.730Z,94.25
2022-12-12T13:34:20.584Z,94.40
2022-12-12T13:36:53.779Z,94.09
2022-12-12T13:39:32.938Z,93.26
2022-12-12T13:42:07.391Z,93.87
2022-12-12T13:44:47.297Z,93.74
2022-12-12T13:47:21.842Z,92.96
2022-12-12T13:50:02.576Z,93.61
2022-12-12T13:52:42.078Z,93.53
2022-12-12T13:55:13.284Z,92.96
2022-12-12T13:58:02.510Z,93.15
2022-12-12T14:00:41.596Z,93.27
2022-12-12T14:03:12.912Z,93.61
2022-12-12T14:05:49.898Z,92.94
2022-12-12T14:08:26.201Z,92.89
2022-12-12T14:11:01.711Z,92.88
2022-12-12T14:13:42.853Z,93.63
2022-12-12T14:16:14.396Z,93.65
2022-12-12T14:18:51.544Z,93.15
2022-12-12T14:21:44.352Z,93.31
2022-12-12T14:24:33.767Z,92.74
2022-12-12T14:27:09.682Z,92.86
2022-12-12T14:29:43.283Z,93.08
2022-12-12T14:32:34.531Z,92.55
2022-12-12T14:35:28.988Z,93.01
2022-12-12T14:38:34.343Z,92.67
2022-12-12T14:41:14.002Z,91.99
2022-12-12T14:44:37.120Z,92.67
2022-12-12T14:46:44.066Z,91.83
2022-12-12T14:49:17.692Z,92.28
2022-12-12T14:51:51.979Z,92.05
2022-12-12T14:54:24.924Z,91.48
2022-12-12T14:57:01.357Z,92.19
2022-12-12T14:59:33.952Z,92.01
2022-12-12T15:02:18.140Z,92.12
2022-12-12T15:04:58.165Z,91.92
2022-12-12T15:07:38.363Z,91.66
2022-12-12T15:10:24.116Z,91.27
2022-12-12T15:12:55.356Z,91.65
2022-12-12T15:15:31.582Z,91.82
2022-12-12T15:18:02.968Z,91.78
2022-12-12T15:20:35.204Z,91.47
2022-12-12T15:23:07.340Z,91.36
2022-12-12T15:25:46.572Z,91.33
2022-12-12T15:28:21.003Z,91.21
2022-12-12T15:30:53.688Z,90.74
2022-12-12T15:33:27.145Z,91.24
2022-12-12T15:36:04.925Z,91.29
2022-12-12T15:38:36.396Z,91.02
2022-12-12T15:41:13.531Z,91.60
2022-12-12T15:43:45.288Z,91.10
2022-12-12T15:46:16.944Z,90.97
2022-12-12T15:48:52.185Z,90.74
2022-12-12T15:51:29.985Z,90.89
2022-12-12T15:54:02.516Z,91.12
2022-12-12T15:56:33.800Z,90.70
2022-12-12T15:59:05.008Z,91.15
2022-12-12T16:01:36.487Z,90.82
2022-12-12T16:04:11.370Z,91.10
2022-12-12T16:06:44.724Z,90.96
2022-12-12T16:09:21.686Z,90.56
2022-12-12T16:11:57.515Z,91.16
2022-12-12T16:14:42.147Z,90.75
2022-12-12T16:17:23.198Z,90.24
2022-12-12T16:20:00.643Z,90.48
2022-12-12T16:22:43.894Z,90.04
2022-12-12T16:25:27.217Z,90.89
2022-12-12T16:28:08.069Z,90.24
2022-12-12T16:30:41.752Z,90.62
2022-12-12T16:33:25.360Z,90.23
2022-12-12T16:35:59.178Z,90.65
2022-12-12T16:38:31.023Z,90.13
2022-12-12T16:41:17.139Z,90.32
2022-12-12T16:43:48.587Z,90.36
2022-12-12T16:46:21.649Z,90.14
2022-12-12T16:48:53.307Z,89.93
2022-12-12T16:51:28.396Z,89.99
2022-12-12T16:53:59.888Z,89.96
2022-12-12T16:56:31.205Z,90.25
2022-12-12T16:59:02.517Z,89.52
2022-12-12T17:01:38.583Z,89.83
2022-12-12T17:04:18.269Z,89.51
2022-12-12T17:06:50.247Z,89.39
2022-12-12T17:09:25.475Z,89.56
2022-12-12T17:11:59.637Z,89.38
2022-12-12T17:14:30.990Z,89.93
2022-12-12T17:17:05.433Z,89.83
2022-12-12T17:19:36.756Z,90.09
2022-12-12T17:22:08.118Z,89.97
2022-12-12T17:24:39.465Z,90.13
2022-12-12T17:27:10.751Z,89.29
2022-12-12T17:29:42.004Z,89.25
2022-12-12T17:32:13.332Z,89.34
2022-12-12T17:34:44.655Z,89.47
2022-12-12T17:37:15.951Z,89.64
2022-12-12T17:39:47.324Z,88.83
2022-12-12T17:42:18.850Z,89.15
2022-12-12T17:44:50.293Z,89.64
2022-12-12T17:47:21.726Z,88.95
2022-12-12T17:49:53.008Z,89.10
2022-12-12T17:52:24.321Z,89.25
2022-12-12T17:55:53.570Z,88.96
2022-12-12T17:57:46.833Z,89.29
2022-12-12T18:00:18.342Z,88.73
2022-12-12T18:02:49.618Z,88.96
2022-12-12T18:05:20.960Z,88.57
2022-12-12T18:07:52.381Z,88.43
2022-12-12T18:10:23.696Z,88.51
2022-12-12T18:12:55.089Z,88.61
2022-12-12T18:15:26.343Z,89.28
2022-12-12T18:17:57.613Z,88.84
2022-12-12T18:20:31.491Z,88.13
2022-12-12T18:23:03.367Z,88.70
2022-12-12T18:25:37.374Z,88.83
2022-12-12T18:28:12.179Z,89.03
2022-12-12T18:30:43.513Z,89.19
2022-12-12T18:33:14.770Z,89.08
2022-12-12T18:35:46.023Z,89.53
2022-12-12T18:38:18.985Z,89.17
2022-12-12T18:40:52.680Z,88.86
2022-12-12T18:43:26.106Z,89.29
2022-12-12T18:46:02.960Z,88.98
2022-12-12T18:48:35.258Z,89.14
2022-12-12T18:51:11.412Z,89.17
2022-12-12T18:53:44.270Z,88.93
2022-12-12T18:56:19.179Z,88.88
2022-12-12T18:58:53.115Z,88.31
2022-12-12T19:01:27.628Z,88.37
2022-12-12T19:04:04.529Z,88.71
2022-12-12T19:06:40.034Z,88.39
2022-12-12T19:09:16.668Z,88.88
2022-12-12T19:11:49.434Z,88.05
2022-12-12T19:14:21.505Z,88.09
2022-12-12T19:16:52.919Z,88.59
2022-12-12T19:19:24.404Z,88.20
2022-12-12T19:21:55.670Z,88.07
2022-12-12T19:24:27.066Z,87.91
2022-12-12T19:26:58.326Z,88.50
2022-12-12T19:29:29.648Z,88.23
2022-12-12T19:32:00.991Z,87.89
2022-12-12T19:34:32.360Z,87.67
2022-12-12T19:37:03.852Z,87.99
2022-12-12T19:39:35.287Z,88.21
2022-12-12T19:42:06.693Z,87.80
2022-12-12T19:44:43.187Z,87.46
2022-12-12T19:47:16.666Z,87.51
2022-12-12T19:49:49.462Z,87.79
2022-12-12T19:52:21.104Z,87.49
2022-12-12T19:54:52.624Z,87.96
2022-12-12T19:57:26.162Z,87.69
2022-12-12T19:59:57.507Z,87.75
2022-12-12T20:02:29.141Z,87.62
2022-12-12T20:05:00.455Z,87.73
2022-12-12T20:07:31.752Z,87.71
2022-12-12T20:10:03.378Z,88.02
2022-12-12T20:12:34.653Z,87.47
2022-12-12T20:15:06.499Z,88.04
2022-12-12T20:17:37.855Z,87.75
2022-12-12T20:20:10.843Z,87.67
2022-12-12T20:22:42.198Z,87.72
2022-12-12T20:25:13.487Z,87.72
2022-12-12T20:27:44.986Z,87.42
2022-12-12T20:30:16.740Z,87.68
2022-12-12T20:32:48.323Z,87.24
2022-12-12T20:35:19.661Z,87.83
2022-12-12T20:37:51.017Z,87.69
2022-12-12T20:40:22.586Z,87.58
2022-12-12T20:43:01.615Z,87.34
2022-12-12T20:45:38.486Z,87.50
2022-12-12T20:48:09.967Z,87.60
2022-12-12T20:50:41.636Z,87.66
2022-12-12T20:53:13.234Z,87.31
2022-12-12T20:55:44.767Z,87.05
2022-12-12T20:58:16.083Z,87.53
2022-12-12T21:00:47.388Z,87.33
2022-12-12T21:03:18.712Z,87.11
2022-12-12T21:05:50.488Z,87.33
2022-12-12T21:08:21.883Z,88.21
2022-12-12T21:10:53.197Z,87.68
2022-12-12T21:13:24.512Z,87.16
2022-12-12T21:15:55.822Z,87.23
2022-12-12T21:18:27.212Z,87.11
2022-12-12T21:20:58.451Z,87.40
2022-12-12T21:23:30.256Z,87.35
2022-12-12T21:26:06.422Z,87.30
2022-12-12T21:28:38.290Z,87.48
2022-12-12T21:31:11.697Z,87.62
2022-12-12T21:33:43.696Z,87.30
2022-12-12T21:36:17.742Z,87.70
2022-12-12T21:38:50.022Z,87.24
2022-12-12T21:41:22.796Z,87.31
2022-12-12T21:43:59.299Z,87.70
2022-12-12T21:46:30.615Z,87.44
2022-12-12T21:49:19.903Z,86.89
2022-12-12T21:51:52.532Z,87.28
2022-12-12T21:54:24.056Z,87.30
2022-12-12T21:56:56.905Z,86.84
2022-12-12T21:59:28.951Z,87.12
2022-12-12T22:02:00.603Z,86.96
2022-12-12T22:04:32.147Z,87.36
2022-12-12T22:07:03.387Z,87.20
2022-12-12T22:09:34.633Z,87.44
2022-12-12T22:12:06.441Z,87.09
2022-12-12T22:14:37.689Z,87.27
2022-12-12T22:17:08.940Z,86.84
2022-12-12T22:19:40.172Z,86.67
2022-12-12T22:22:11.420Z,87.42
2022-12-12T22:24:42.686Z,86.38
2022-12-12T22:27:13.979Z,87.21
2022-12-12T22:29:45.331Z,86.93
2022-12-12T22:32:16.690Z,86.99
2022-12-12T22:34:48.488Z,87.16
2022-12-12T22:37:19.792Z,87.01
2022-12-12T22:39:51.048Z,87.28
2022-12-12T22:42:22.304Z,87.45
2022-12-12T22:44:53.548Z,87.77
2022-12-12T22:47:24.886Z,87.34
2022-12-12T22:49:56.261Z,87.89
2022-12-12T22:52:28.841Z,87.90
2022-12-12T22:55:00.304Z,88.11
2022-12-12T22:57:31.603Z,87.80
2022-12-12T23:00:04.459Z,88.08
2022-12-12T23:02:35.728Z,88.01
2022-12-12T23:05:07.324Z,87.38
2022-12-12T23:07:38.690Z,87.58
2022-12-12T23:10:10.109Z,87.58
2022-12-12T23:12:41.395Z,87.35
2022-12-12T23:15:13.047Z,87.72
2022-12-12T23:17:44.503Z,87.46
2022-12-12T23:20:15.887Z,87.31
2022-12-12T23:22:47.195Z,87.83
2022-12-12T23:25:18.461Z,87.17
2022-12-12T23:27:49.740Z,87.24
2022-12-12T23:30:20.993Z,87.04
2022-12-12T23:32:52.443Z,87.26
2022-12-12T23:35:23.686Z,87.13
2022-12-12T23:37:54.941Z,86.65
2022-12-12T23:40:26.231Z,86.77
2022-12-12T23:42:57.479Z,86.82
2022-12-12T23:45:29.407Z,87.17
2022-12-12T23:48:00.703Z,86.88
2022-12-12T23:50:32.616Z,86.56
2022-12-12T23:53:09.050Z,87.02
2022-12-12T23:55:41.769Z,86.99
2022-12-12T23:58:13.121Z,86.82
